sensor_id;sensor_type;location;lat;lon;timestamp;pressure;altitude;pressure_sealevel;temperature;humidity
11621;BME280;5866;49.094;11.900;2023-05-19T00:00:02;96765.19;;;11.83;76.63
11621;BME280;5866;49.094;11.900;2023-05-19T00:02:30;96761.13;;;11.71;77.85
11621;BME280;5866;49.094;11.900;2023-05-19T00:05:00;96761.13;;;11.71;78.39
11621;BME280;5866;49.094;11.900;2023-05-19T00:07:30;96759.16;;;11.73;78.09
11621;BME280;5866;49.094;11.900;2023-05-19T00:09:58;96764.44;;;11.91;77.62
11621;BME280;5866;49.094;11.900;2023-05-19T00:12:26;96762.03;;;12.06;76.00
11621;BME280;5866;49.094;11.900;2023-05-19T00:14:55;96768.03;;;12.08;75.94
11621;BME280;5866;49.094;11.900;2023-05-19T00:17:23;96765.09;;;12.19;75.23
11621;BME280;5866;49.094;11.900;2023-05-19T00:19:51;96759.81;;;12.27;74.43
11621;BME280;5866;49.094;11.900;2023-05-19T00:22:20;96762.69;;;12.08;76.13
11621;BME280;5866;49.094;11.900;2023-05-19T00:24:48;96758.09;;;12.18;75.73
11621;BME280;5866;49.094;11.900;2023-05-19T00:27:15;96752.31;;;11.96;76.59
11621;BME280;5866;49.094;11.900;2023-05-19T00:29:43;96745.44;;;11.86;78.11
11621;BME280;5866;49.094;11.900;2023-05-19T00:32:12;96747.56;;;11.74;79.59
11621;BME280;5866;49.094;11.900;2023-05-19T00:34:39;96743.09;;;11.75;80.12
11621;BME280;5866;49.094;11.900;2023-05-19T00:37:07;96745.31;;;11.87;79.36
11621;BME280;5866;49.094;11.900;2023-05-19T00:39:35;96738.53;;;11.93;79.27
11621;BME280;5866;49.094;11.900;2023-05-19T00:42:03;96742.91;;;11.76;81.35
11621;BME280;5866;49.094;11.900;2023-05-19T00:44:31;96737.56;;;11.68;81.24
11621;BME280;5866;49.094;11.900;2023-05-19T00:46:58;96737.81;;;11.65;82.16
11621;BME280;5866;49.094;11.900;2023-05-19T00:49:27;96728.50;;;11.61;81.67
11621;BME280;5866;49.094;11.900;2023-05-19T00:51:55;96728.44;;;11.53;83.39
11621;BME280;5866;49.094;11.900;2023-05-19T00:54:23;96729.53;;;11.25;84.38
11621;BME280;5866;49.094;11.900;2023-05-19T00:56:52;96721.91;;;11.04;86.06
11621;BME280;5866;49.094;11.900;2023-05-19T00:59:20;96729.94;;;11.12;86.68
11621;BME280;5866;49.094;11.900;2023-05-19T01:01:47;96725.78;;;10.92;87.61
11621;BME280;5866;49.094;11.900;2023-05-19T01:04:18;96725.16;;;10.81;89.00
11621;BME280;5866;49.094;11.900;2023-05-19T01:06:48;96721.09;;;10.86;89.48
11621;BME280;5866;49.094;11.900;2023-05-19T01:09:20;96712.13;;;10.87;89.19
11621;BME280;5866;49.094;11.900;2023-05-19T01:11:47;96726.91;;;10.90;89.46
11621;BME280;5866;49.094;11.900;2023-05-19T01:14:16;96724.19;;;10.82;90.92
11621;BME280;5866;49.094;11.900;2023-05-19T01:16:46;96724.34;;;10.63;91.96
11621;BME280;5866;49.094;11.900;2023-05-19T01:19:30;96724.13;;;10.74;91.77
11621;BME280;5866;49.094;11.900;2023-05-19T01:22:17;96718.06;;;10.64;92.10
11621;BME280;5866;49.094;11.900;2023-05-19T01:25:07;96724.25;;;10.55;92.80
11621;BME280;5866;49.094;11.900;2023-05-19T01:27:47;96720.84;;;10.45;93.54
11621;BME280;5866;49.094;11.900;2023-05-19T01:30:36;96724.09;;;10.56;93.44
11621;BME280;5866;49.094;11.900;2023-05-19T01:33:06;96719.34;;;10.60;93.54
11621;BME280;5866;49.094;11.900;2023-05-19T01:35:36;96718.88;;;10.47;94.01
11621;BME280;5866;49.094;11.900;2023-05-19T01:38:07;96727.91;;;10.26;96.78
11621;BME280;5866;49.094;11.900;2023-05-19T01:40:36;96721.34;;;10.30;96.10
11621;BME280;5866;49.094;11.900;2023-05-19T01:43:07;96722.38;;;10.20;98.14
11621;BME280;5866;49.094;11.900;2023-05-19T01:45:37;96722.69;;;10.07;99.15
11621;BME280;5866;49.094;11.900;2023-05-19T01:48:05;96720.88;;;10.35;98.03
11621;BME280;5866;49.094;11.900;2023-05-19T01:50:36;96722.56;;;10.36;96.72
11621;BME280;5866;49.094;11.900;2023-05-19T01:53:04;96716.13;;;10.38;97.59
11621;BME280;5866;49.094;11.900;2023-05-19T01:55:31;96719.06;;;10.35;98.24
11621;BME280;5866;49.094;11.900;2023-05-19T01:58:06;96713.59;;;10.37;96.30
11621;BME280;5866;49.094;11.900;2023-05-19T02:00:44;96716.56;;;10.52;94.52
11621;BME280;5866;49.094;11.900;2023-05-19T02:03:25;96726.06;;;10.54;93.01
11621;BME280;5866;49.094;11.900;2023-05-19T02:06:02;96718.25;;;10.53;93.77
11621;BME280;5866;49.094;11.900;2023-05-19T02:08:40;96721.16;;;10.77;91.36
11621;BME280;5866;49.094;11.900;2023-05-19T02:11:13;96709.69;;;10.59;92.84
11621;BME280;5866;49.094;11.900;2023-05-19T02:13:43;96706.81;;;10.52;94.48
11621;BME280;5866;49.094;11.900;2023-05-19T02:16:12;96707.25;;;10.48;93.86
11621;BME280;5866;49.094;11.900;2023-05-19T02:18:40;96703.94;;;10.63;92.84
11621;BME280;5866;49.094;11.900;2023-05-19T02:21:11;96709.91;;;10.48;93.93
11621;BME280;5866;49.094;11.900;2023-05-19T02:23:39;96710.09;;;10.64;93.64
11621;BME280;5866;49.094;11.900;2023-05-19T02:26:07;96701.13;;;10.47;95.46
11621;BME280;5866;49.094;11.900;2023-05-19T02:28:34;96711.84;;;10.01;99.48
11621;BME280;5866;49.094;11.900;2023-05-19T02:31:02;96705.38;;;10.03;100.00
11621;BME280;5866;49.094;11.900;2023-05-19T02:33:35;96707.78;;;10.33;99.74
11621;BME280;5866;49.094;11.900;2023-05-19T02:36:03;96707.53;;;10.27;98.71
11621;BME280;5866;49.094;11.900;2023-05-19T02:38:31;96705.75;;;10.45;98.30
11621;BME280;5866;49.094;11.900;2023-05-19T02:40:58;96710.59;;;10.32;99.58
11621;BME280;5866;49.094;11.900;2023-05-19T02:43:26;96700.13;;;10.48;96.23
11621;BME280;5866;49.094;11.900;2023-05-19T02:45:55;96702.59;;;10.59;95.44
11621;BME280;5866;49.094;11.900;2023-05-19T02:48:23;96698.53;;;10.37;97.40
11621;BME280;5866;49.094;11.900;2023-05-19T02:50:52;96700.97;;;9.94;100.00
11621;BME280;5866;49.094;11.900;2023-05-19T02:53:20;96696.47;;;10.04;100.00
11621;BME280;5866;49.094;11.900;2023-05-19T02:55:47;96696.75;;;10.28;99.19
11621;BME280;5866;49.094;11.900;2023-05-19T02:58:15;96695.06;;;10.55;97.04
11621;BME280;5866;49.094;11.900;2023-05-19T03:00:42;96689.59;;;10.56;96.18
11621;BME280;5866;49.094;11.900;2023-05-19T03:03:10;96691.13;;;10.59;95.18
11621;BME280;5866;49.094;11.900;2023-05-19T03:05:39;96686.47;;;10.43;96.41
11621;BME280;5866;49.094;11.900;2023-05-19T03:08:08;96688.56;;;10.49;95.93
11621;BME280;5866;49.094;11.900;2023-05-19T03:10:36;96697.69;;;10.37;96.27
11621;BME280;5866;49.094;11.900;2023-05-19T03:13:03;96699.13;;;10.31;97.48
11621;BME280;5866;49.094;11.900;2023-05-19T03:15:31;96690.59;;;10.55;94.95
11621;BME280;5866;49.094;11.900;2023-05-19T03:17:59;96693.09;;;10.57;93.97
11621;BME280;5866;49.094;11.900;2023-05-19T03:20:27;96687.44;;;10.87;91.77
11621;BME280;5866;49.094;11.900;2023-05-19T03:22:56;96690.28;;;11.11;89.35
11621;BME280;5866;49.094;11.900;2023-05-19T03:25:25;96693.38;;;11.24;86.78
11621;BME280;5866;49.094;11.900;2023-05-19T03:27:53;96689.31;;;11.12;88.12
11621;BME280;5866;49.094;11.900;2023-05-19T03:30:20;96690.09;;;10.87;89.29
11621;BME280;5866;49.094;11.900;2023-05-19T03:32:48;96700.50;;;11.06;89.50
11621;BME280;5866;49.094;11.900;2023-05-19T03:35:17;96695.22;;;10.71;90.30
11621;BME280;5866;49.094;11.900;2023-05-19T03:37:45;96693.31;;;10.28;94.08
11621;BME280;5866;49.094;11.900;2023-05-19T03:40:12;96699.72;;;10.70;94.35
11621;BME280;5866;49.094;11.900;2023-05-19T03:42:42;96685.88;;;11.45;86.99
11621;BME280;5866;49.094;11.900;2023-05-19T03:45:09;96687.44;;;11.30;86.65
11621;BME280;5866;49.094;11.900;2023-05-19T03:47:37;96698.97;;;11.64;86.68
11621;BME280;5866;49.094;11.900;2023-05-19T03:50:06;96704.28;;;11.21;88.60
11621;BME280;5866;49.094;11.900;2023-05-19T03:52:35;96707.50;;;11.50;87.20
11621;BME280;5866;49.094;11.900;2023-05-19T03:55:04;96710.25;;;11.92;82.03
11621;BME280;5866;49.094;11.900;2023-05-19T03:57:32;96705.50;;;12.04;81.79
11621;BME280;5866;49.094;11.900;2023-05-19T04:00:01;96720.78;;;12.02;79.48
11621;BME280;5866;49.094;11.900;2023-05-19T04:02:30;96708.06;;;11.36;83.46
11621;BME280;5866;49.094;11.900;2023-05-19T04:04:58;96710.44;;;11.04;87.02
11621;BME280;5866;49.094;11.900;2023-05-19T04:07:26;96716.22;;;10.82;89.39
11621;BME280;5866;49.094;11.900;2023-05-19T04:09:53;96717.53;;;10.78;89.90
11621;BME280;5866;49.094;11.900;2023-05-19T04:12:21;96713.50;;;10.74;90.80
11621;BME280;5866;49.094;11.900;2023-05-19T04:14:48;96706.81;;;10.87;90.02
11621;BME280;5866;49.094;11.900;2023-05-19T04:17:17;96712.06;;;10.97;88.90
11621;BME280;5866;49.094;11.900;2023-05-19T04:19:45;96707.66;;;10.88;90.93
11621;BME280;5866;49.094;11.900;2023-05-19T04:22:12;96700.38;;;10.90;90.62
11621;BME280;5866;49.094;11.900;2023-05-19T04:24:40;96702.88;;;10.91;90.49
11621;BME280;5866;49.094;11.900;2023-05-19T04:27:07;96705.00;;;10.88;91.38
11621;BME280;5866;49.094;11.900;2023-05-19T04:29:37;96702.84;;;11.27;88.18
11621;BME280;5866;49.094;11.900;2023-05-19T04:32:06;96709.41;;;11.40;86.89
11621;BME280;5866;49.094;11.900;2023-05-19T04:34:36;96705.59;;;11.60;85.40
11621;BME280;5866;49.094;11.900;2023-05-19T04:37:05;96707.41;;;11.60;84.29
11621;BME280;5866;49.094;11.900;2023-05-19T04:39:35;96699.72;;;11.31;86.26
11621;BME280;5866;49.094;11.900;2023-05-19T04:42:04;96706.75;;;11.40;86.32
11621;BME280;5866;49.094;11.900;2023-05-19T04:44:32;96700.91;;;11.11;89.13
11621;BME280;5866;49.094;11.900;2023-05-19T04:46:59;96712.69;;;10.91;90.60
11621;BME280;5866;49.094;11.900;2023-05-19T04:49:27;96712.75;;;10.81;92.69
11621;BME280;5866;49.094;11.900;2023-05-19T04:51:56;96705.41;;;10.93;91.85
11621;BME280;5866;49.094;11.900;2023-05-19T04:54:23;96713.38;;;10.93;91.38
11621;BME280;5866;49.094;11.900;2023-05-19T04:56:51;96704.78;;;10.99;91.18
11621;BME280;5866;49.094;11.900;2023-05-19T04:59:20;96718.13;;;11.07;90.16
11621;BME280;5866;49.094;11.900;2023-05-19T05:01:48;96713.56;;;11.17;89.27
11621;BME280;5866;49.094;11.900;2023-05-19T05:04:16;96710.22;;;11.15;89.33
11621;BME280;5866;49.094;11.900;2023-05-19T05:06:43;96717.94;;;11.26;88.97
11621;BME280;5866;49.094;11.900;2023-05-19T05:09:14;96714.44;;;11.43;87.41
11621;BME280;5866;49.094;11.900;2023-05-19T05:11:43;96705.78;;;11.41;88.39
11621;BME280;5866;49.094;11.900;2023-05-19T05:14:11;96707.22;;;11.79;85.28
11621;BME280;5866;49.094;11.900;2023-05-19T05:16:39;96706.00;;;11.99;83.33
11621;BME280;5866;49.094;11.900;2023-05-19T05:19:07;96705.06;;;11.82;83.67
11621;BME280;5866;49.094;11.900;2023-05-19T05:21:36;96692.97;;;11.62;84.18
11621;BME280;5866;49.094;11.900;2023-05-19T05:24:04;96689.84;;;11.92;84.48
11621;BME280;5866;49.094;11.900;2023-05-19T05:26:34;96692.22;;;12.04;83.69
11621;BME280;5866;49.094;11.900;2023-05-19T05:29:02;96690.63;;;12.19;81.12
11621;BME280;5866;49.094;11.900;2023-05-19T05:31:29;96698.19;;;12.39;79.90
11621;BME280;5866;49.094;11.900;2023-05-19T05:33:58;96687.88;;;12.44;79.38
11621;BME280;5866;49.094;11.900;2023-05-19T05:36:25;96692.06;;;12.55;77.62
11621;BME280;5866;49.094;11.900;2023-05-19T05:38:53;96687.13;;;12.84;75.98
11621;BME280;5866;49.094;11.900;2023-05-19T05:41:20;96694.47;;;12.98;75.92
11621;BME280;5866;49.094;11.900;2023-05-19T05:43:49;96690.84;;;13.31;72.80
11621;BME280;5866;49.094;11.900;2023-05-19T05:46:17;96699.44;;;12.85;73.93
11621;BME280;5866;49.094;11.900;2023-05-19T05:48:45;96695.44;;;12.89;75.77
11621;BME280;5866;49.094;11.900;2023-05-19T05:51:13;96695.50;;;13.05;76.16
11621;BME280;5866;49.094;11.900;2023-05-19T05:53:43;96690.13;;;12.73;76.12
11621;BME280;5866;49.094;11.900;2023-05-19T05:56:13;96695.13;;;12.92;76.82
11621;BME280;5866;49.094;11.900;2023-05-19T05:58:41;96692.69;;;12.49;77.77
11621;BME280;5866;49.094;11.900;2023-05-19T06:01:10;96690.50;;;13.18;75.05
11621;BME280;5866;49.094;11.900;2023-05-19T06:03:40;96691.31;;;13.51;73.26
11621;BME280;5866;49.094;11.900;2023-05-19T06:06:08;96695.75;;;13.83;71.08
11621;BME280;5866;49.094;11.900;2023-05-19T06:08:35;96691.41;;;13.90;70.28
11621;BME280;5866;49.094;11.900;2023-05-19T06:11:03;96685.44;;;13.80;69.02
11621;BME280;5866;49.094;11.900;2023-05-19T06:13:34;96689.94;;;13.79;72.44
11621;BME280;5866;49.094;11.900;2023-05-19T06:16:02;96689.44;;;13.76;70.84
11621;BME280;5866;49.094;11.900;2023-05-19T06:18:31;96679.03;;;14.05;69.03
11621;BME280;5866;49.094;11.900;2023-05-19T06:20:58;96675.72;;;13.87;70.05
11621;BME280;5866;49.094;11.900;2023-05-19T06:23:26;96666.50;;;14.13;68.30
11621;BME280;5866;49.094;11.900;2023-05-19T06:25:54;96668.00;;;14.08;70.23
11621;BME280;5866;49.094;11.900;2023-05-19T06:28:23;96668.75;;;13.86;70.26
11621;BME280;5866;49.094;11.900;2023-05-19T06:30:50;96671.78;;;14.29;67.92
11621;BME280;5866;49.094;11.900;2023-05-19T06:33:18;96674.66;;;14.51;66.15
11621;BME280;5866;49.094;11.900;2023-05-19T06:35:46;96673.94;;;14.87;64.72
11621;BME280;5866;49.094;11.900;2023-05-19T06:38:14;96675.69;;;15.77;62.33
11621;BME280;5866;49.094;11.900;2023-05-19T06:40:41;96679.31;;;15.99;59.41
11621;BME280;5866;49.094;11.900;2023-05-19T06:43:09;96681.03;;;16.07;60.63
11621;BME280;5866;49.094;11.900;2023-05-19T06:45:37;96686.09;;;16.45;57.94
11621;BME280;5866;49.094;11.900;2023-05-19T06:48:04;96691.38;;;16.39;58.48
11621;BME280;5866;49.094;11.900;2023-05-19T06:50:32;96683.97;;;16.41;59.08
11621;BME280;5866;49.094;11.900;2023-05-19T06:53:01;96680.66;;;16.89;57.03
11621;BME280;5866;49.094;11.900;2023-05-19T06:55:29;96679.41;;;17.27;55.68
11621;BME280;5866;49.094;11.900;2023-05-19T06:57:57;96673.56;;;17.45;54.58
11621;BME280;5866;49.094;11.900;2023-05-19T07:00:25;96671.03;;;17.37;54.51
11621;BME280;5866;49.094;11.900;2023-05-19T07:02:52;96663.97;;;17.51;54.53
11621;BME280;5866;49.094;11.900;2023-05-19T07:05:20;96675.09;;;16.91;56.16
11621;BME280;5866;49.094;11.900;2023-05-19T07:07:47;96670.13;;;15.50;60.32
11621;BME280;5866;49.094;11.900;2023-05-19T07:10:16;96664.44;;;15.97;58.15
11621;BME280;5866;49.094;11.900;2023-05-19T07:12:44;96668.56;;;16.28;57.44
11621;BME280;5866;49.094;11.900;2023-05-19T07:15:11;96662.78;;;15.66;59.43
11621;BME280;5866;49.094;11.900;2023-05-19T07:17:39;96665.31;;;15.00;63.07
11621;BME280;5866;49.094;11.900;2023-05-19T07:20:07;96663.13;;;15.26;63.96
11621;BME280;5866;49.094;11.900;2023-05-19T07:22:36;96673.53;;;15.58;61.71
11621;BME280;5866;49.094;11.900;2023-05-19T07:25:05;96669.69;;;16.05;59.95
11621;BME280;5866;49.094;11.900;2023-05-19T07:27:34;96670.50;;;16.85;57.57
11621;BME280;5866;49.094;11.900;2023-05-19T07:30:03;96653.53;;;17.41;54.84
11621;BME280;5866;49.094;11.900;2023-05-19T07:32:30;96654.16;;;17.43;55.80
11621;BME280;5866;49.094;11.900;2023-05-19T07:34:58;96661.47;;;17.07;55.82
11621;BME280;5866;49.094;11.900;2023-05-19T07:37:25;96660.47;;;18.18;52.84
11621;BME280;5866;49.094;11.900;2023-05-19T07:39:53;96649.06;;;18.03;52.24
11621;BME280;5866;49.094;11.900;2023-05-19T07:42:20;96646.91;;;18.74;51.10
11621;BME280;5866;49.094;11.900;2023-05-19T07:44:49;96650.75;;;18.45;51.76
11621;BME280;5866;49.094;11.900;2023-05-19T07:47:17;96650.84;;;17.62;54.21
11621;BME280;5866;49.094;11.900;2023-05-19T07:49:44;96648.22;;;19.11;50.56
11621;BME280;5866;49.094;11.900;2023-05-19T07:52:15;96661.53;;;21.12;45.85
11621;BME280;5866;49.094;11.900;2023-05-19T07:54:44;96654.34;;;22.47;43.51
11621;BME280;5866;49.094;11.900;2023-05-19T07:57:12;96645.06;;;22.19;42.38
11621;BME280;5866;49.094;11.900;2023-05-19T07:59:40;96645.34;;;21.92;42.47
11621;BME280;5866;49.094;11.900;2023-05-19T08:02:09;96651.50;;;20.17;45.76
11621;BME280;5866;49.094;11.900;2023-05-19T08:04:36;96652.84;;;18.56;49.38
11621;BME280;5866;49.094;11.900;2023-05-19T08:07:04;96641.78;;;17.97;50.40
11621;BME280;5866;49.094;11.900;2023-05-19T08:09:31;96648.72;;;17.85;52.40
11621;BME280;5866;49.094;11.900;2023-05-19T08:11:59;96646.16;;;17.71;52.34
11621;BME280;5866;49.094;11.900;2023-05-19T08:14:27;96650.41;;;16.24;55.27
11621;BME280;5866;49.094;11.900;2023-05-19T08:16:54;96646.28;;;17.14;55.34
11621;BME280;5866;49.094;11.900;2023-05-19T08:19:23;96632.25;;;18.76;52.60
11621;BME280;5866;49.094;11.900;2023-05-19T08:21:52;96638.28;;;20.22;48.00
11621;BME280;5866;49.094;11.900;2023-05-19T08:24:19;96636.03;;;19.93;47.08
11621;BME280;5866;49.094;11.900;2023-05-19T08:26:47;96636.75;;;20.46;46.49
11621;BME280;5866;49.094;11.900;2023-05-19T08:29:14;96635.25;;;19.34;49.75
11621;BME280;5866;49.094;11.900;2023-05-19T08:31:42;96635.63;;;18.44;49.80
11621;BME280;5866;49.094;11.900;2023-05-19T08:34:09;96642.97;;;18.29;50.83
11621;BME280;5866;49.094;11.900;2023-05-19T08:36:38;96637.44;;;18.37;51.57
11621;BME280;5866;49.094;11.900;2023-05-19T08:39:07;96639.63;;;16.89;54.07
11621;BME280;5866;49.094;11.900;2023-05-19T08:41:34;96639.88;;;16.73;55.31
11621;BME280;5866;49.094;11.900;2023-05-19T08:44:02;96629.63;;;16.97;55.15
11621;BME280;5866;49.094;11.900;2023-05-19T08:46:30;96636.81;;;16.97;54.09
11621;BME280;5866;49.094;11.900;2023-05-19T08:49:04;96622.81;;;15.94;56.32
11621;BME280;5866;49.094;11.900;2023-05-19T08:51:40;96627.06;;;16.18;56.41
11621;BME280;5866;49.094;11.900;2023-05-19T08:54:14;96617.69;;;17.21;53.70
11621;BME280;5866;49.094;11.900;2023-05-19T08:56:43;96619.38;;;17.77;52.51
11621;BME280;5866;49.094;11.900;2023-05-19T08:59:12;96614.91;;;17.35;53.76
11621;BME280;5866;49.094;11.900;2023-05-19T09:01:41;96609.13;;;17.32;54.32
11621;BME280;5866;49.094;11.900;2023-05-19T09:04:09;96610.16;;;17.59;53.97
11621;BME280;5866;49.094;11.900;2023-05-19T09:06:38;96602.03;;;18.20;52.67
11621;BME280;5866;49.094;11.900;2023-05-19T09:09:07;96603.91;;;18.26;50.51
11621;BME280;5866;49.094;11.900;2023-05-19T09:11:35;96599.53;;;18.12;50.62
11621;BME280;5866;49.094;11.900;2023-05-19T09:14:03;96600.63;;;17.84;52.41
11621;BME280;5866;49.094;11.900;2023-05-19T09:16:31;96605.00;;;17.57;52.07
11621;BME280;5866;49.094;11.900;2023-05-19T09:18:59;96600.88;;;17.95;52.24
11621;BME280;5866;49.094;11.900;2023-05-19T09:21:27;96599.88;;;17.62;52.85
11621;BME280;5866;49.094;11.900;2023-05-19T09:24:02;96597.97;;;17.56;52.99
11621;BME280;5866;49.094;11.900;2023-05-19T09:26:35;96596.00;;;17.71;53.14
11621;BME280;5866;49.094;11.900;2023-05-19T09:29:09;96587.22;;;16.44;55.30
11621;BME280;5866;49.094;11.900;2023-05-19T09:31:37;96589.00;;;16.73;55.98
11621;BME280;5866;49.094;11.900;2023-05-19T09:34:11;96583.94;;;17.54;53.90
11621;BME280;5866;49.094;11.900;2023-05-19T09:36:39;96593.13;;;18.13;52.67
11621;BME280;5866;49.094;11.900;2023-05-19T09:39:15;96602.66;;;18.22;53.54
11621;BME280;5866;49.094;11.900;2023-05-19T09:41:44;96592.69;;;18.10;51.55
11621;BME280;5866;49.094;11.900;2023-05-19T09:44:12;96596.13;;;17.57;52.85
11621;BME280;5866;49.094;11.900;2023-05-19T09:46:47;96587.22;;;17.07;53.95
11621;BME280;5866;49.094;11.900;2023-05-19T09:49:18;96577.00;;;17.45;54.40
11621;BME280;5866;49.094;11.900;2023-05-19T09:51:48;96579.84;;;17.99;54.24
11621;BME280;5866;49.094;11.900;2023-05-19T09:54:18;96583.41;;;18.66;52.85
11621;BME280;5866;49.094;11.900;2023-05-19T09:56:50;96591.63;;;20.22;48.39
11621;BME280;5866;49.094;11.900;2023-05-19T09:59:18;96571.84;;;21.16;45.80
11621;BME280;5866;49.094;11.900;2023-05-19T10:01:47;96562.50;;;21.62;46.12
11621;BME280;5866;49.094;11.900;2023-05-19T10:04:15;96569.69;;;20.94;46.62
11621;BME280;5866;49.094;11.900;2023-05-19T10:06:43;96570.56;;;19.93;48.01
11621;BME280;5866;49.094;11.900;2023-05-19T10:09:11;96566.50;;;19.70;49.01
11621;BME280;5866;49.094;11.900;2023-05-19T10:11:41;96561.03;;;20.85;46.93
11621;BME280;5866;49.094;11.900;2023-05-19T10:14:09;96551.00;;;21.30;45.28
11621;BME280;5866;49.094;11.900;2023-05-19T10:16:37;96556.88;;;20.89;48.24
11621;BME280;5866;49.094;11.900;2023-05-19T10:19:06;96561.31;;;21.82;45.06
11621;BME280;5866;49.094;11.900;2023-05-19T10:21:34;96557.22;;;20.24;46.59
11621;BME280;5866;49.094;11.900;2023-05-19T10:24:01;96558.66;;;19.23;49.30
11621;BME280;5866;49.094;11.900;2023-05-19T10:26:29;96551.94;;;18.41;51.08
11621;BME280;5866;49.094;11.900;2023-05-19T10:28:59;96560.00;;;17.93;52.32
11621;BME280;5866;49.094;11.900;2023-05-19T10:31:29;96555.00;;;17.50;54.44
11621;BME280;5866;49.094;11.900;2023-05-19T10:34:07;96560.00;;;17.53;53.55
11621;BME280;5866;49.094;11.900;2023-05-19T10:36:43;96562.50;;;17.33;54.56
11621;BME280;5866;49.094;11.900;2023-05-19T10:39:16;96554.69;;;17.38;56.30
11621;BME280;5866;49.094;11.900;2023-05-19T10:41:50;96548.28;;;17.39;56.13
11621;BME280;5866;49.094;11.900;2023-05-19T10:44:30;96542.97;;;17.73;54.85
11621;BME280;5866;49.094;11.900;2023-05-19T10:47:00;96543.84;;;17.80;54.89
11621;BME280;5866;49.094;11.900;2023-05-19T10:49:33;96551.75;;;18.49;52.97
11621;BME280;5866;49.094;11.900;2023-05-19T10:52:01;96534.66;;;18.76;51.63
11621;BME280;5866;49.094;11.900;2023-05-19T10:54:38;96543.56;;;19.48;51.53
11621;BME280;5866;49.094;11.900;2023-05-19T10:57:13;96549.38;;;19.45;50.15
11621;BME280;5866;49.094;11.900;2023-05-19T10:59:42;96536.50;;;18.75;51.29
11621;BME280;5866;49.094;11.900;2023-05-19T11:02:38;96536.09;;;19.44;50.23
11621;BME280;5866;49.094;11.900;2023-05-19T11:05:07;96543.59;;;18.22;52.31
11621;BME280;5866;49.094;11.900;2023-05-19T11:07:35;96539.22;;;19.34;49.76
11621;BME280;5866;49.094;11.900;2023-05-19T11:10:06;96535.47;;;20.19;48.67
11621;BME280;5866;49.094;11.900;2023-05-19T11:12:41;96537.13;;;19.23;51.02
11621;BME280;5866;49.094;11.900;2023-05-19T11:15:13;96536.50;;;18.69;52.75
11621;BME280;5866;49.094;11.900;2023-05-19T11:17:44;96538.38;;;18.81;51.82
11621;BME280;5866;49.094;11.900;2023-05-19T11:20:20;96542.03;;;18.48;52.03
11621;BME280;5866;49.094;11.900;2023-05-19T11:23:04;96540.44;;;19.32;52.06
11621;BME280;5866;49.094;11.900;2023-05-19T11:25:44;96534.97;;;19.91;49.32
11621;BME280;5866;49.094;11.900;2023-05-19T11:28:14;96517.56;;;20.75;47.79
11621;BME280;5866;49.094;11.900;2023-05-19T11:30:44;96524.09;;;21.84;47.60
11621;BME280;5866;49.094;11.900;2023-05-19T11:33:14;96506.50;;;23.01;43.26
11621;BME280;5866;49.094;11.900;2023-05-19T11:35:44;96521.69;;;21.33;45.20
11621;BME280;5866;49.094;11.900;2023-05-19T11:38:13;96521.19;;;21.18;45.75
11621;BME280;5866;49.094;11.900;2023-05-19T11:40:41;96517.81;;;20.36;48.32
11621;BME280;5866;49.094;11.900;2023-05-19T11:43:09;96514.94;;;20.31;48.11
11621;BME280;5866;49.094;11.900;2023-05-19T11:45:36;96516.47;;;20.83;48.26
11621;BME280;5866;49.094;11.900;2023-05-19T11:48:09;96519.91;;;22.36;44.92
11621;BME280;5866;49.094;11.900;2023-05-19T11:50:39;96508.50;;;24.21;42.01
11621;BME280;5866;49.094;11.900;2023-05-19T11:53:10;96507.56;;;26.21;39.39
11621;BME280;5866;49.094;11.900;2023-05-19T11:55:41;96484.25;;;27.74;34.60
11621;BME280;5866;49.094;11.900;2023-05-19T11:58:09;96494.34;;;25.03;38.23
11621;BME280;5866;49.094;11.900;2023-05-19T12:00:38;96503.88;;;23.47;40.08
11621;BME280;5866;49.094;11.900;2023-05-19T12:03:08;96498.47;;;22.82;41.50
11621;BME280;5866;49.094;11.900;2023-05-19T12:05:36;96504.44;;;22.13;43.22
11621;BME280;5866;49.094;11.900;2023-05-19T12:08:08;96504.06;;;21.92;43.82
11621;BME280;5866;49.094;11.900;2023-05-19T12:10:37;96498.47;;;21.69;43.71
11621;BME280;5866;49.094;11.900;2023-05-19T12:13:05;96501.59;;;21.29;44.68
11621;BME280;5866;49.094;11.900;2023-05-19T12:15:35;96503.00;;;20.07;48.01
11621;BME280;5866;49.094;11.900;2023-05-19T12:18:02;96503.00;;;20.07;49.14
11621;BME280;5866;49.094;11.900;2023-05-19T12:20:32;96501.91;;;20.59;48.07
11621;BME280;5866;49.094;11.900;2023-05-19T12:23:01;96500.50;;;20.81;47.02
11621;BME280;5866;49.094;11.900;2023-05-19T12:25:29;96501.81;;;20.97;46.96
11621;BME280;5866;49.094;11.900;2023-05-19T12:27:58;96501.91;;;21.40;45.67
11621;BME280;5866;49.094;11.900;2023-05-19T12:30:29;96499.16;;;22.48;44.03
11621;BME280;5866;49.094;11.900;2023-05-19T12:32:57;96493.66;;;23.37;43.84
11621;BME280;5866;49.094;11.900;2023-05-19T12:35:25;96500.72;;;22.26;43.10
11621;BME280;5866;49.094;11.900;2023-05-19T12:37:55;96484.38;;;21.67;44.13
11621;BME280;5866;49.094;11.900;2023-05-19T12:40:23;96491.56;;;21.55;44.41
11621;BME280;5866;49.094;11.900;2023-05-19T12:42:55;96487.06;;;21.49;44.68
11621;BME280;5866;49.094;11.900;2023-05-19T12:45:24;96488.03;;;21.72;45.11
11621;BME280;5866;49.094;11.900;2023-05-19T12:47:53;96490.59;;;21.67;44.74
11621;BME280;5866;49.094;11.900;2023-05-19T12:50:28;96487.44;;;21.09;46.66
11621;BME280;5866;49.094;11.900;2023-05-19T12:52:58;96488.84;;;21.36;46.07
11621;BME280;5866;49.094;11.900;2023-05-19T12:55:25;96486.47;;;20.73;47.65
11621;BME280;5866;49.094;11.900;2023-05-19T12:57:53;96481.91;;;21.65;45.64
11621;BME280;5866;49.094;11.900;2023-05-19T13:00:23;96478.28;;;22.26;44.45
11621;BME280;5866;49.094;11.900;2023-05-19T13:02:58;96482.91;;;22.66;43.04
11621;BME280;5866;49.094;11.900;2023-05-19T13:05:28;96479.78;;;21.49;45.72
11621;BME280;5866;49.094;11.900;2023-05-19T13:07:59;96482.44;;;21.92;45.12
11621;BME280;5866;49.094;11.900;2023-05-19T13:10:28;96471.22;;;21.95;45.69